Latest Weather Observations for Wellcamp Airport

IDQ60901

Issued at 4:51 pm EST Sunday 24 September 2017 (issued every 10 minutes, with the page automatically refreshed every 10 minutes)

About weather observations | Map of Brisbane area stations | Latest observations for Brisbane area | Other Formats
Station Details ID: 541150 Name: WELLCAMP AIRPORT Lat: -27.55 Lon: 151.78 Height: 436.98 m
Data from the previous 72 hours. | See also: Recent months for locations in Queensland
Date/Time
EST
Temp
°C
App
Temp
°C
Dew
Point
°C
Rel
Hum
%
Delta-T
°C
Wind Press
QNH
hPa
Press
MSL
hPa
Rain since
9am
mm
Dir  Spd
km/h
Gust
km/h
Spd
kts
Gust
kts
24/04:30pm 33.8 26.5 4.5 16 15.7 NW 32 44 17 24 1009.1 1008.2 0.0
24/04:11pm 34.2 26.8 3.9 15 16.2 NW 32 50 17 27 1009.0 1008.1 0.0
24/04:00pm 34.4 26.6 5.0 16 16.0 NW 35 48 19 26 1009.0 1008.1 0.0
24/03:30pm 34.9 27.2 3.5 14 16.7 NNW 33 46 18 25 1008.9 1008.0 0.0
24/03:00pm 35.0 27.1 4.5 15 16.5 NW 35 48 19 26 1009.3 1008.4 0.0
24/02:35pm 34.9 27.8 5.4 16 16.2 NW 32 50 17 27 1009.5 1008.6 0.0
24/02:30pm 35.0 27.3 5.4 16 16.2 NNW 35 50 19 27 1009.6 1008.7 0.0
24/02:23pm 35.1 28.0 5.5 16 16.3 NNW 32 50 17 27 1009.5 1008.6 0.0
24/02:00pm 35.0 27.9 5.4 16 16.3 NNW 32 44 17 24 1009.9 1009.0 0.0
24/01:30pm 34.6 27.4 6.0 17 15.8 NW 33 54 18 29 1010.1 1009.2 0.0
24/01:26pm 34.3 27.1 5.8 17 15.7 NW 33 54 18 29 1010.4 1009.4 0.0
24/01:00pm 34.4 27.6 6.7 18 15.5 NW 32 44 17 24 1010.8 1009.9 0.0
24/12:30pm 33.6 26.6 6.0 18 15.2 NW 32 50 17 27 1011.1 1010.2 0.0
24/12:29pm 33.6 26.8 6.8 19 14.9 NW 32 50 17 27 1011.1 1010.2 0.0
24/12:00pm 33.5 26.5 5.9 18 15.2 NNW 32 44 17 24 1011.6 1010.7 0.0
24/11:30am 32.3 25.6 7.2 21 14.0 NNW 32 46 17 25 1012.2 1011.3 0.0
24/11:00am 31.7 24.8 7.4 22 13.5 NNW 33 48 18 26 1012.6 1011.8 0.0
24/10:43am 30.9 23.9 6.7 22 13.3 NNW 33 52 18 28 1013.1 1012.2 0.0
24/10:30am 30.6 22.5 7.1 23 13.0 NNW 39 52 21 28 1013.3 1012.4 0.0
24/10:00am 30.1 22.7 6.7 23 12.8 NNW 35 48 19 26 1013.6 1012.7 0.0
24/09:30am 28.6 21.6 6.7 25 11.9 NNW 33 43 18 23 1014.0 1013.1 0.0
24/09:00am 27.6 19.2 5.8 25 11.6 NW 39 52 21 28 1014.1 1013.2 0.0
24/08:30am 26.6 19.4 5.0 25 11.2 NNW 32 41 17 22 1014.2 1013.3 0.0
24/08:00am 24.4 19.8 5.7 30 9.7 NNW 19 30 10 16 1014.4 1013.6 0.0
24/07:30am 21.6 20.4 10.4 49 6.2 NNW 7 9 4 5 1014.3 1013.4 0.0
24/07:00am 18.8 18.0 9.8 56 4.9 N 4 6 2 3 1014.1 1013.2 0.0
24/06:58am 18.5 17.7 9.8 57 4.7 N 4 6 2 3 1014.0 1013.1 0.0
24/06:30am 13.4 11.9 6.7 64 3.3 WNW 4 6 2 3 1013.7 1012.8 0.0
24/06:00am 13.1 12.0 6.7 65 3.1 W 2 4 1 2 1013.5 1012.6 0.0
24/05:30am 13.5 11.8 8.4 71 2.6 NNW 7 9 4 5 1013.2 1012.3 0.0
24/05:00am 14.4 12.2 7.9 65 3.3 NNW 9 11 5 6 1013.1 1012.2 0.0
24/04:30am 13.8 11.5 7.3 65 3.3 N 9 11 5 6 1013.1 1012.2 0.0
24/04:00am 13.7 11.0 7.2 65 3.2 NNW 11 13 6 7 1013.1 1012.2 0.0
24/03:30am 14.1 12.3 7.2 63 3.5 NNW 6 7 3 4 1013.0 1012.1 0.0
24/03:00am 14.3 12.3 6.4 59 3.9 N 6 7 3 4 1013.0 1012.1 0.0
24/02:30am 14.9 13.2 7.7 62 3.7 NW 6 6 3 3 1013.1 1012.2 0.0
24/02:00am 15.7 13.7 7.2 57 4.3 NNW 7 7 4 4 1013.4 1012.5 0.0
24/01:30am 16.7 14.4 7.4 54 4.8 NNW 9 11 5 6 1013.7 1012.8 0.0
24/01:00am 16.9 14.9 7.3 53 4.9 NW 7 9 4 5 1014.0 1013.1 0.0
24/12:30am 17.7 15.7 6.9 49 5.5 NNW 7 9 4 5 1014.2 1013.3 0.0
24/12:00am 17.0 14.4 6.2 49 5.4 NNW 9 9 5 5 1014.6 1013.8 0.0
 
Date/Time
EST
Temp
°C
App
Temp
°C
Dew
Point
°C
Rel
Hum
%
Delta-T
°C
Wind Press
QNH
hPa
Press
MSL
hPa
Rain since
9am
mm
Dir  Spd
km/h
Gust
km/h
Spd
kts
Gust
kts
23/11:30pm 18.1 16.2 6.6 47 5.8 NW 6 7 3 4 1014.6 1013.8 0.0
23/11:00pm 18.7 16.7 6.2 44 6.3 N 6 6 3 3 1014.5 1013.7 0.0
23/10:30pm 19.8 17.2 6.2 41 6.9 NW 9 9 5 5 1014.5 1013.7 0.0
23/10:00pm 19.8 17.2 6.2 41 6.9 NW 9 9 5 5 1014.4 1013.6 0.0
23/09:30pm 20.7 18.2 6.6 40 7.3 NNW 9 13 5 7 1014.5 1013.7 0.0
23/09:00pm 22.2 19.8 7.2 38 7.9 N 9 15 5 8 1014.5 1013.7 0.0
23/08:30pm 21.1 18.5 6.2 38 7.7 NNW 9 13 5 7 1014.5 1013.7 0.0
23/08:00pm 22.9 19.9 6.2 34 8.7 NNW 11 17 6 9 1014.3 1013.4 0.0
23/07:30pm 22.8 20.5 5.7 33 8.8 NNW 7 11 4 6 1014.1 1013.2 0.0
23/07:00pm 24.3 22.1 6.1 31 9.5 N 7 9 4 5 1013.7 1012.8 0.0
23/06:30pm 23.8 21.2 6.1 32 9.2 N 9 11 5 6 1013.3 1012.4 0.0
23/06:00pm 26.5 23.3 4.9 25 11.2 NNW 11 15 6 8 1013.0 1012.1 0.0
23/05:30pm 29.4 25.4 4.8 21 13.0 NW 15 19 8 10 1012.6 1011.8 0.0
23/05:00pm 31.2 26.8 4.9 19 14.0 NW 17 22 9 12 1012.4 1011.6 0.0
23/04:30pm 31.8 27.0 4.6 18 14.5 NW 19 28 10 15 1012.2 1011.3 0.0
23/04:00pm 32.5 27.6 5.1 18 14.8 NW 20 28 11 15 1012.1 1011.2 0.0
23/03:30pm 32.4 27.9 4.2 17 15.0 NNW 17 26 9 14 1012.1 1011.2 0.0
23/03:00pm 32.4 27.5 5.1 18 14.7 NNW 20 35 11 19 1012.2 1011.3 0.0
23/02:30pm 32.3 27.2 4.2 17 14.9 N 20 32 11 17 1012.4 1011.6 0.0
23/02:00pm 32.2 27.8 6.4 20 14.2 N 19 35 10 19 1012.9 1012.0 0.0
23/01:30pm 31.6 27.5 8.0 23 13.3 N 19 30 10 16 1013.3 1012.4 0.0
23/01:00pm 32.1 27.9 8.4 23 13.4 NNW 20 35 11 19 1013.8 1012.9 0.0
23/12:30pm 31.0 27.1 9.3 26 12.4 NW 20 32 11 17 1014.3 1013.4 0.0
23/12:00pm 30.3 26.5 9.8 28 11.8 NNW 20 30 11 16 1014.9 1014.1 0.0
23/11:30am 30.0 25.4 9.5 28 11.7 NNW 24 35 13 19 1015.5 1014.6 0.0
23/11:00am 29.3 24.5 8.9 28 11.5 NW 24 39 13 21 1016.0 1015.1 0.0
23/10:30am 27.4 23.0 8.8 31 10.4 NNW 22 32 12 17 1016.5 1015.7 0.0
23/10:00am 26.8 22.5 9.2 33 9.8 NNW 22 30 12 16 1017.0 1016.2 0.0
23/09:30am 25.2 20.0 8.7 35 9.1 NW 26 33 14 18 1017.2 1016.4 0.0
23/09:00am 23.7 18.4 9.7 41 7.8 NNW 28 35 15 19 1017.4 1016.6 0.6
23/08:30am 22.0 18.8 12.0 53 5.7 NNW 20 26 11 14 1017.6 1016.7 0.6
23/08:00am 20.0 18.5 13.0 64 4.0 N 13 19 7 10 1017.6 1016.7 0.6
23/07:30am 17.7 17.9 13.2 75 2.6 NNW 4 6 2 3 1017.4 1016.6 0.6
23/07:00am 15.5 15.8 12.3 81 1.8 SSW 2 2 1 1 1017.3 1016.5 0.6
23/06:30am 11.7 10.9 9.6 87 1.1 WSW 4 6 2 3 1016.9 1016.1 0.6
23/06:00am 10.4 9.4 8.7 89 0.9 WNW 4 6 2 3 1016.5 1015.7 0.6
23/05:30am 11.8 11.1 10.0 89 0.9 WNW 4 6 2 3 1016.5 1015.7 0.6
23/05:00am 12.9 11.7 10.4 85 1.3 NNW 7 7 4 4 1016.4 1015.6 0.6
23/04:30am 13.4 12.3 10.6 83 1.5 NNW 7 9 4 5 1016.2 1015.3 0.6
23/04:00am 12.7 11.4 9.3 80 1.8 N 6 9 3 5 1016.0 1015.1 0.6
23/03:30am 13.5 12.0 8.6 72 2.5 N 6 7 3 4 1016.1 1015.2 0.6
23/03:00am 14.1 12.2 8.9 71 2.7 NNW 9 9 5 5 1016.3 1015.4 0.6
23/02:30am 14.7 13.1 8.9 68 3.0 NW 7 9 4 5 1016.5 1015.7 0.6
23/02:00am 14.7 13.2 9.3 70 2.8 NNW 7 9 4 5 1016.5 1015.7 0.6
23/01:30am 15.8 14.1 9.9 68 3.2 NNW 9 11 5 6 1016.8 1016.0 0.6
23/01:00am 16.3 15.2 10.6 69 3.1 NNW 7 9 4 5 1017.1 1016.3 0.6
23/12:30am 16.8 15.4 10.9 68 3.2 N 9 11 5 6 1017.6 1016.7 0.6
23/12:00am 17.5 16.3 11.5 68 3.3 N 9 13 5 7 1017.6 1016.7 0.6
 
Date/Time
EST
Temp
°C
App
Temp
°C
Dew
Point
°C
Rel
Hum
%
Delta-T
°C
Wind Press
QNH
hPa
Press
MSL
hPa
Rain since
9am
mm
Dir  Spd
km/h
Gust
km/h
Spd
kts
Gust
kts
22/11:30pm 18.4 17.0 12.2 67 3.5 N 11 15 6 8 1017.7 1016.8 0.6
22/11:00pm 19.3 16.9 12.6 65 3.8 NNE 17 28 9 15 1017.7 1016.8 0.6
22/10:30pm 18.5 18.4 12.0 66 3.7 N 4 9 2 5 1017.7 1016.8 0.6
22/10:00pm 19.4 16.8 11.9 62 4.2 NE 17 24 9 13 1017.3 1016.5 0.6
22/09:30pm 19.5 16.2 11.5 60 4.5 NE 20 28 11 15 1017.1 1016.3 0.6
22/09:00pm 19.8 18.9 11.3 58 4.8 N 7 20 4 11 1016.9 1016.1 0.6
22/08:30pm 20.1 17.3 11.3 57 4.9 ENE 17 26 9 14 1016.5 1015.7 0.6
22/08:00pm 20.3 17.5 11.5 57 5.0 ENE 17 22 9 12 1016.2 1015.3 0.6
22/07:30pm 20.5 16.9 11.7 57 5.0 ENE 22 28 12 15 1015.7 1014.8 0.6
22/07:00pm 21.7 16.8 11.4 52 5.8 ENE 28 35 15 19 1015.0 1014.2 0.6
22/06:30pm 21.7 21.0 13.1 58 5.0 SE 9 13 5 7 1014.6 1013.8 0.6
22/06:00pm 25.6 22.5 9.0 35 9.2 W 15 24 8 13 1014.4 1013.6 0.6
22/05:30pm 24.9 22.5 12.5 46 7.3 NNE 17 26 9 14 1014.3 1013.4 0.6
22/05:00pm 28.1 24.4 7.9 28 11.1 WNW 17 24 9 13 1014.1 1013.2 0.0
22/04:30pm 28.3 23.7 8.1 28 11.2 WNW 22 32 12 17 1013.8 1012.9 0.0
22/04:00pm 29.6 24.3 8.6 27 11.8 WNW 26 35 14 19 1013.8 1012.9 0.0
22/03:33pm 30.0 24.1 9.0 27 11.9 NW 30 63 16 34 1013.7 1012.8 0.0
22/03:30pm 30.1 23.7 8.5 26 12.2 NW 32 46 17 25 1013.8 1012.9 0.0
22/03:00pm 30.4 24.0 7.0 23 12.9 NW 30 48 16 26 1013.9 1013.0 0.0
22/02:57pm 30.5 24.5 7.0 23 12.9 NW 28 48 15 26 1013.9 1013.0 0.0
22/02:30pm 29.5 23.3 8.0 26 12.0 NW 30 44 16 24 1014.1 1013.2 0.0
22/02:00pm 29.8 23.5 8.8 27 11.9 WNW 32 50 17 27 1014.5 1013.7 0.0
22/01:30pm 29.4 23.1 9.0 28 11.5 NW 32 50 17 27 1014.8 1014.0 0.0
22/01:24pm 30.1 24.2 9.1 27 11.9 NW 30 50 16 27 1014.8 1014.0 0.0
22/01:00pm 30.4 24.9 9.3 27 12.0 NW 28 39 15 21 1015.2 1014.3 0.0
22/12:30pm 29.2 23.7 9.3 29 11.3 NNW 28 39 15 21 1015.7 1014.8 0.0
22/12:05pm 28.2 23.0 10.4 33 10.2 N 28 46 15 25 1016.4 1015.6 0.0
22/12:00pm 28.7 23.5 10.4 32 10.5 NNW 28 46 15 25 1016.4 1015.6 0.0
22/11:30am 28.5 24.4 11.6 35 9.9 NNW 24 35 13 19 1017.0 1016.2 0.0
22/11:00am 27.2 21.9 11.3 37 9.2 NW 30 41 16 22 1017.8 1016.9 0.0
22/10:30am 26.3 21.9 10.5 37 9.0 NNW 24 43 13 23 1018.0 1017.1 0.0
22/10:00am 24.8 21.8 12.1 45 7.4 N 19 28 10 15 1018.4 1017.6 0.0
22/09:30am 23.7 20.7 12.4 49 6.6 NNW 20 30 11 16 1018.8 1018.0 0.0
22/09:00am 22.7 19.6 13.5 56 5.4 NNE 22 32 12 17 1018.9 1018.1 0.0
22/08:30am 21.5 18.8 13.4 60 4.8 NNE 20 30 11 16 1019.0 1018.2 0.0
22/08:00am 20.4 17.4 13.8 66 3.9 NNE 22 28 12 15 1018.8 1018.0 0.0
22/07:30am 19.4 16.9 14.0 71 3.2 NE 20 28 11 15 1018.7 1017.9 0.0
22/07:00am 17.9 16.7 14.0 78 2.3 NE 13 19 7 10 1018.5 1017.7 0.0
22/06:30am 15.8 16.2 13.8 88 1.2 N 4 9 2 5 1018.3 1017.4 0.0
22/06:00am 15.6 14.6 13.3 86 1.3 NE 11 19 6 10 1018.0 1017.1 0.0
22/05:30am 15.8 14.1 13.5 86 1.3 NE 15 20 8 11 1017.7 1016.8 0.0
22/05:00am 15.7 14.7 13.4 86 1.3 NE 11 17 6 9 1017.4 1016.6 0.0
22/04:30am 16.0 15.1 13.7 86 1.3 NE 11 20 6 11 1017.1 1016.3 0.0
22/04:00am 16.2 15.0 13.9 86 1.3 NE 13 17 7 9 1017.0 1016.2 0.0
22/03:30am 15.8 14.6 14.0 89 1.0 ENE 13 17 7 9 1016.8 1016.0 0.0
22/03:00am 16.3 15.6 14.3 88 1.2 ENE 11 17 6 9 1016.8 1016.0 0.0
22/02:30am 16.8 15.7 14.4 86 1.4 ENE 13 19 7 10 1017.3 1016.5 0.0
22/02:00am 16.6 15.9 14.4 87 1.3 ENE 11 17 6 9 1017.1 1016.3 0.0
22/01:30am 16.7 14.9 14.5 87 1.3 ENE 17 22 9 12 1017.3 1016.5 0.0
22/01:00am 16.9 15.2 14.7 87 1.3 ENE 17 22 9 12 1017.3 1016.5 0.0
22/12:30am 17.1 15.4 14.7 86 1.4 ENE 17 22 9 12 1017.4 1016.6 0.0
22/12:00am 17.3 15.6 14.8 85 1.5 ENE 17 24 9 13 1017.6 1016.7 0.0
 
Date/Time
EST
Temp
°C
App
Temp
°C
Dew
Point
°C
Rel
Hum
%
Delta-T
°C
Wind Press
QNH
hPa
Press
MSL
hPa
Rain since
9am
mm
Dir  Spd
km/h
Gust
km/h
Spd
kts
Gust
kts
21/11:30pm 17.9 15.7 14.8 82 1.8 ENE 20 28 11 15 1017.6 1016.7 0.0
21/11:00pm 18.2 15.6 14.9 81 2.0 ENE 22 30 12 16 1017.2 1016.4 0.0
21/10:30pm 18.5 15.6 15.2 81 2.0 E 24 32 13 17 1017.1 1016.3 0.0
21/10:00pm 18.6 16.5 15.1 80 2.1 E 20 28 11 15 1017.4 1016.6 0.0
21/09:30pm 18.4 15.8 14.9 80 2.1 ENE 22 28 12 15 1017.3 1016.5 0.0
21/09:00pm 18.7 15.6 14.6 77 2.4 ENE 24 35 13 19 1017.2 1016.4 0.0
21/08:30pm 19.4 16.3 14.6 74 2.8 ENE 24 35 13 19 1016.8 1016.0 0.0
21/08:00pm 20.1 16.3 14.7 71 3.2 ENE 28 37 15 20 1016.3 1015.4 0.0
21/07:30pm 21.1 18.0 14.5 66 3.9 E 24 32 13 17 1016.0 1015.1 0.0
21/07:00pm 22.4 18.0 14.0 59 5.0 E 30 41 16 22 1015.8 1014.9 0.0
21/06:30pm 23.5 19.8 12.8 51 6.3 E 24 43 13 23 1015.2 1014.3 0.0
21/06:00pm 24.7 22.7 4.5 27 10.3 WNW 4 6 2 3 1014.8 1014.0 0.0
21/05:30pm 26.4 23.0 4.2 24 11.4 WNW 11 15 6 8 1014.5 1013.7 0.0
21/05:00pm 28.0 25.2 5.0 23 12.1 WNW 9 15 5 8 1014.3 1013.4 0.0

Latest Capital City Observations: Canberra | Sydney | Melbourne | Brisbane | Adelaide | Perth | Hobart | Darwin

Other Formats:

Comma delimited format used in spreadsheet applications
http://www.bom.gov.au/fwo/IDQ60901/IDQ60901.99435.axf

JavaScript Object Notation format (JSON) in row-major order
http://www.bom.gov.au/fwo/IDQ60901/IDQ60901.99435.json